createdAt,value
2023-01-30T00:01:14.885Z,32.70
2023-01-30T00:04:06.380Z,32.72
2023-01-30T00:06:57.225Z,32.79
2023-01-30T00:09:47.898Z,32.91
2023-01-30T00:12:39.977Z,32.98
2023-01-30T00:15:30.317Z,33.00
2023-01-30T00:18:21.115Z,33.09
2023-01-30T00:21:15.252Z,33.18
2023-01-30T00:24:05.588Z,33.26
2023-01-30T00:26:56.637Z,33.20
2023-01-30T00:33:00.364Z,33.20
2023-01-30T00:35:52.409Z,33.07
2023-01-30T00:38:42.371Z,33.13
2023-01-30T00:41:46.980Z,33.11
2023-01-30T00:44:55.479Z,33.14
2023-01-30T00:47:46.576Z,33.15
2023-01-30T00:50:44.363Z,33.14
2023-01-30T00:53:36.141Z,33.14
2023-01-30T00:56:27.112Z,33.17
2023-01-30T00:59:19.261Z,33.21
2023-01-30T01:02:09.647Z,33.26
2023-01-30T01:05:00.330Z,33.29
2023-01-30T01:07:50.921Z,33.41
2023-01-30T01:10:41.716Z,33.55
2023-01-30T01:13:32.377Z,33.61
2023-01-30T01:16:23.477Z,33.65
2023-01-30T01:19:14.601Z,33.71
2023-01-30T01:22:04.848Z,33.73
2023-01-30T01:24:57.185Z,33.77
2023-01-30T01:27:48.224Z,33.85
2023-01-30T01:30:40.904Z,33.84
2023-01-30T01:33:34.212Z,33.98
2023-01-30T01:36:51.602Z,33.98
2023-01-30T01:39:50.970Z,34.18
2023-01-30T01:42:42.320Z,34.26
2023-01-30T01:45:33.236Z,34.24
2023-01-30T01:48:30.003Z,34.28
2023-01-30T01:51:28.699Z,34.34
2023-01-30T01:54:23.803Z,34.43
2023-01-30T01:57:23.197Z,34.42
2023-01-30T02:00:17.555Z,34.43
2023-01-30T02:03:12.250Z,34.48
2023-01-30T02:06:06.176Z,34.57
2023-01-30T02:09:01.518Z,34.67
2023-01-30T02:11:57.604Z,34.73
2023-01-30T02:14:49.581Z,34.73
2023-01-30T02:17:40.684Z,34.89
2023-01-30T02:20:53.965Z,34.99
2023-01-30T02:24:22.969Z,34.95
2023-01-30T02:27:29.989Z,34.85
2023-01-30T02:30:58.877Z,34.82
2023-01-30T02:33:58.365Z,34.74
2023-01-30T02:37:02.640Z,34.70
2023-01-30T02:40:07.985Z,34.67
2023-01-30T02:43:10.002Z,34.73
2023-01-30T02:46:07.227Z,34.79
2023-01-30T02:49:02.453Z,34.93
2023-01-30T02:51:54.275Z,35.04
2023-01-30T02:54:45.174Z,35.07
2023-01-30T02:57:35.635Z,34.99
2023-01-30T03:00:36.841Z,35.07
2023-01-30T03:03:47.828Z,35.14
2023-01-30T03:06:55.197Z,35.15
2023-01-30T03:09:56.146Z,35.28
2023-01-30T03:12:57.271Z,35.24
2023-01-30T03:15:52.314Z,35.39
2023-01-30T03:18:46.871Z,35.32
2023-01-30T03:21:44.897Z,35.40
2023-01-30T03:24:36.279Z,35.48
2023-01-30T03:27:26.879Z,35.68
2023-01-30T03:30:19.350Z,35.70
2023-01-30T03:33:10.854Z,35.78
2023-01-30T03:36:02.993Z,35.71
2023-01-30T03:38:55.143Z,35.92
2023-01-30T03:41:46.158Z,35.96
2023-01-30T03:44:37.180Z,35.98
2023-01-30T03:47:27.523Z,35.98
2023-01-30T03:50:19.182Z,36.24
2023-01-30T03:53:10.345Z,36.26
2023-01-30T03:56:01.030Z,36.17
2023-01-30T03:58:54.333Z,36.17
2023-01-30T04:01:51.828Z,36.35
2023-01-30T04:04:42.505Z,36.30
2023-01-30T04:07:34.235Z,36.32
2023-01-30T04:10:26.129Z,36.44
2023-01-30T04:13:16.841Z,36.67
2023-01-30T04:16:22.536Z,36.59
2023-01-30T04:19:42.261Z,36.77
2023-01-30T04:22:34.323Z,36.75
2023-01-30T04:25:25.377Z,36.89
2023-01-30T04:28:16.691Z,36.88
2023-01-30T04:31:09.287Z,37.23
2023-01-30T04:34:05.671Z,37.26
2023-01-30T04:36:56.403Z,37.29
2023-01-30T04:39:47.350Z,37.51
2023-01-30T04:42:38.128Z,37.51
2023-01-30T04:45:59.046Z,37.78
2023-01-30T04:48:50.179Z,37.87
2023-01-30T04:51:41.203Z,38.02
2023-01-30T04:54:31.931Z,38.04
2023-01-30T04:57:22.442Z,38.13
2023-01-30T05:00:16.450Z,38.40
2023-01-30T05:03:14.556Z,38.39
2023-01-30T05:06:04.910Z,38.35
2023-01-30T05:08:57.121Z,38.46
2023-01-30T05:11:47.676Z,38.63
2023-01-30T05:14:41.493Z,38.80
2023-01-30T05:17:32.657Z,38.80
2023-01-30T05:20:23.283Z,38.85
2023-01-30T05:23:13.819Z,39.06
2023-01-30T05:26:05.364Z,39.18
2023-01-30T05:28:56.963Z,39.11
2023-01-30T05:31:47.219Z,39.08
2023-01-30T05:34:37.585Z,39.42
2023-01-30T05:37:28.761Z,39.51
2023-01-30T05:40:19.934Z,39.55
2023-01-30T05:43:10.693Z,39.52
2023-01-30T05:46:04.036Z,39.81
2023-01-30T05:48:54.064Z,39.87
2023-01-30T05:51:44.652Z,39.96
2023-01-30T05:54:35.671Z,40.01
2023-01-30T05:57:26.602Z,40.04
2023-01-30T06:00:19.355Z,40.03
2023-01-30T06:03:10.568Z,40.06
2023-01-30T06:06:02.882Z,40.07
2023-01-30T06:08:56.728Z,40.26
2023-01-30T06:11:47.516Z,40.39
2023-01-30T06:14:37.545Z,40.60
2023-01-30T06:17:29.759Z,40.55
2023-01-30T06:20:20.986Z,40.47
2023-01-30T06:23:10.932Z,40.73
2023-01-30T06:26:03.696Z,41.37
2023-01-30T06:28:55.302Z,41.86
2023-01-30T06:31:45.833Z,41.39
2023-01-30T06:34:36.314Z,41.94
2023-01-30T06:37:27.202Z,43.04
2023-01-30T06:40:18.717Z,42.87
2023-01-30T06:43:09.271Z,42.01
2023-01-30T06:46:01.724Z,41.38
2023-01-30T06:48:52.085Z,40.43
2023-01-30T06:51:42.755Z,40.14
2023-01-30T06:54:33.396Z,40.28
2023-01-30T06:57:24.155Z,40.44
2023-01-30T07:00:18.501Z,40.41
2023-01-30T07:03:11.839Z,41.15
2023-01-30T07:06:03.047Z,41.16
2023-01-30T07:08:53.649Z,40.90
2023-01-30T07:11:43.609Z,40.63
2023-01-30T07:14:34.323Z,40.34
2023-01-30T07:17:25.362Z,40.31
2023-01-30T07:20:16.648Z,40.15
2023-01-30T07:23:07.287Z,39.87
2023-01-30T07:25:57.549Z,39.90
2023-01-30T07:28:47.615Z,39.96
2023-01-30T07:31:38.154Z,39.88
2023-01-30T07:34:28.292Z,39.66
2023-01-30T07:37:18.633Z,39.40
2023-01-30T07:40:12.387Z,39.51
2023-01-30T07:43:04.494Z,39.71
2023-01-30T07:45:55.390Z,39.82
2023-01-30T07:48:47.446Z,39.98
2023-01-30T07:51:37.675Z,40.12
2023-01-30T07:54:27.962Z,40.26
2023-01-30T07:57:18.101Z,40.31
2023-01-30T08:00:12.359Z,40.37
2023-01-30T08:03:02.408Z,40.39
2023-01-30T08:05:53.734Z,40.53
2023-01-30T08:08:43.508Z,40.57
2023-01-30T08:11:33.483Z,40.58
2023-01-30T08:14:23.384Z,40.63
2023-01-30T08:17:13.283Z,40.59
2023-01-30T08:20:03.135Z,40.70
2023-01-30T08:22:53.692Z,40.71
2023-01-30T08:25:43.913Z,40.60
2023-01-30T08:28:34.229Z,41.09
2023-01-30T08:31:24.328Z,41.39
2023-01-30T08:34:14.469Z,41.44
2023-01-30T08:37:04.399Z,41.45
2023-01-30T08:39:54.585Z,41.57
2023-01-30T08:42:46.700Z,41.40
2023-01-30T08:45:36.783Z,41.19
2023-01-30T08:48:29.867Z,41.21
2023-01-30T08:51:22.372Z,41.28
2023-01-30T08:54:13.098Z,40.98
2023-01-30T08:57:03.416Z,40.68
2023-01-30T08:59:54.482Z,40.32
2023-01-30T09:02:48.215Z,40.14
2023-01-30T09:05:38.329Z,39.76
2023-01-30T09:08:28.967Z,39.23
2023-01-30T09:11:19.098Z,38.55
2023-01-30T09:14:08.981Z,38.03
2023-01-30T09:16:59.394Z,37.62
2023-01-30T09:19:50.086Z,37.54
2023-01-30T09:22:41.029Z,37.52
2023-01-30T09:25:30.974Z,37.37
2023-01-30T09:28:20.862Z,37.42
2023-01-30T09:31:10.613Z,37.44
2023-01-30T09:34:01.451Z,37.04
2023-01-30T09:36:51.634Z,36.79
2023-01-30T09:39:41.824Z,36.89
2023-01-30T09:43:02.726Z,37.15
2023-01-30T09:46:12.951Z,37.43
2023-01-30T09:49:10.031Z,37.98
2023-01-30T09:52:13.642Z,38.03
2023-01-30T09:55:18.928Z,38.08
2023-01-30T09:58:14.804Z,38.31
2023-01-30T10:01:12.243Z,38.98
2023-01-30T10:04:16.766Z,39.09
2023-01-30T10:07:17.520Z,39.23
2023-01-30T10:10:15.644Z,39.00
2023-01-30T10:13:19.976Z,38.73
2023-01-30T10:16:18.882Z,38.61
2023-01-30T10:19:36.173Z,38.57
2023-01-30T10:22:42.092Z,38.53
2023-01-30T10:25:39.427Z,38.51
2023-01-30T10:28:34.093Z,38.76
2023-01-30T10:31:28.283Z,39.21
2023-01-30T10:34:24.015Z,39.48
2023-01-30T10:37:18.117Z,39.42
2023-01-30T10:40:20.852Z,39.52
2023-01-30T10:43:20.636Z,39.92
2023-01-30T10:46:25.886Z,40.29
2023-01-30T10:49:20.113Z,40.26
2023-01-30T10:52:27.249Z,40.41
2023-01-30T10:55:38.143Z,40.40
2023-01-30T10:58:36.262Z,40.37
2023-01-30T11:01:32.551Z,40.68
2023-01-30T11:04:31.501Z,40.51
2023-01-30T11:07:21.892Z,40.45
2023-01-30T11:10:19.065Z,40.32
2023-01-30T11:13:18.734Z,40.19
2023-01-30T11:16:11.968Z,40.10
2023-01-30T11:19:19.451Z,40.31
2023-01-30T11:22:15.633Z,40.62
2023-01-30T11:25:12.655Z,40.38
2023-01-30T11:28:04.724Z,40.30
2023-01-30T11:30:58.847Z,40.03
2023-01-30T11:34:00.446Z,39.83
2023-01-30T11:36:51.865Z,39.61
2023-01-30T11:39:52.549Z,39.52
2023-01-30T11:42:47.802Z,39.30
2023-01-30T11:45:43.229Z,39.38
2023-01-30T11:49:11.148Z,39.56
2023-01-30T11:51:48.948Z,39.67
2023-01-30T11:54:41.783Z,39.54
2023-01-30T11:57:40.064Z,39.79
2023-01-30T12:00:39.918Z,40.10
2023-01-30T12:03:31.443Z,39.80
2023-01-30T12:06:33.612Z,40.24
2023-01-30T12:09:36.331Z,39.94
2023-01-30T12:12:33.965Z,39.64
2023-01-30T12:15:27.716Z,39.60
2023-01-30T12:18:24.620Z,39.78
2023-01-30T12:21:22.160Z,39.77
2023-01-30T12:24:21.578Z,40.04
2023-01-30T12:27:19.058Z,40.34
2023-01-30T12:30:21.533Z,40.43
2023-01-30T12:36:15.451Z,40.30
2023-01-30T12:39:32.352Z,40.68
2023-01-30T12:42:48.480Z,40.69
2023-01-30T12:45:44.355Z,40.75
2023-01-30T12:48:48.870Z,40.67
2023-01-30T12:51:55.795Z,40.92
2023-01-30T12:54:56.074Z,40.91
2023-01-30T12:57:52.137Z,41.08
2023-01-30T13:00:57.380Z,41.24
2023-01-30T13:03:56.632Z,41.68
2023-01-30T13:06:59.747Z,41.88
2023-01-30T13:10:05.365Z,42.07
2023-01-30T13:13:04.637Z,42.49
2023-01-30T13:16:04.613Z,42.21
2023-01-30T13:18:59.200Z,42.64
2023-01-30T13:21:54.048Z,42.54
2023-01-30T13:24:58.697Z,42.33
2023-01-30T13:27:57.243Z,42.43
2023-01-30T13:30:50.800Z,42.34
2023-01-30T13:33:44.670Z,42.74
2023-01-30T13:36:44.316Z,42.56
2023-01-30T13:39:42.304Z,42.82
2023-01-30T13:42:40.121Z,42.90
2023-01-30T13:45:33.193Z,42.79
2023-01-30T13:48:48.125Z,42.84
2023-01-30T13:51:49.700Z,42.88
2023-01-30T13:54:51.095Z,43.06
2023-01-30T13:57:51.321Z,42.87
2023-01-30T14:00:41.374Z,42.87
2023-01-30T14:03:34.510Z,42.77
2023-01-30T14:06:37.336Z,42.74
2023-01-30T14:09:33.388Z,42.81
2023-01-30T14:12:27.272Z,43.05
2023-01-30T14:15:29.831Z,42.90
2023-01-30T14:18:26.476Z,42.84
2023-01-30T14:21:21.415Z,42.72
2023-01-30T14:24:27.917Z,42.77
2023-01-30T14:27:32.183Z,42.89
2023-01-30T14:30:47.836Z,42.94
2023-01-30T14:33:49.195Z,42.91
2023-01-30T14:36:48.511Z,43.01
2023-01-30T14:39:50.886Z,43.12
2023-01-30T14:42:41.579Z,43.16
2023-01-30T14:45:49.739Z,43.27
2023-01-30T14:48:45.782Z,43.26
2023-01-30T14:51:43.702Z,43.45
2023-01-30T14:54:42.508Z,43.39
2023-01-30T14:57:34.889Z,43.43
2023-01-30T15:00:29.519Z,43.65
2023-01-30T15:03:22.263Z,43.78
2023-01-30T15:06:14.067Z,43.72
2023-01-30T15:09:05.681Z,43.89
2023-01-30T15:12:06.215Z,43.68
2023-01-30T15:15:07.495Z,43.61
2023-01-30T15:18:14.192Z,43.74
2023-01-30T15:21:27.084Z,43.68
2023-01-30T15:25:01.943Z,43.83
2023-01-30T15:28:11.651Z,44.20
2023-01-30T15:31:13.970Z,44.00
2023-01-30T15:34:04.495Z,43.98
2023-01-30T15:36:54.388Z,44.02
2023-01-30T15:39:44.213Z,43.99
2023-01-30T15:42:34.272Z,44.07
2023-01-30T15:45:38.030Z,44.14
2023-01-30T15:48:40.528Z,44.16
2023-01-30T15:51:33.458Z,44.19
2023-01-30T15:54:25.806Z,44.31
2023-01-30T15:57:23.280Z,44.32
2023-01-30T16:00:25.881Z,44.31
2023-01-30T16:03:22.012Z,44.49
2023-01-30T16:06:25.033Z,44.43
2023-01-30T16:09:23.598Z,44.44
2023-01-30T16:12:27.990Z,44.53
2023-01-30T16:15:21.548Z,44.45
2023-01-30T16:18:25.839Z,44.60
2023-01-30T16:21:21.433Z,44.50
2023-01-30T16:24:18.727Z,44.47
2023-01-30T16:27:16.202Z,44.61
2023-01-30T16:30:09.821Z,44.48
2023-01-30T16:33:00.278Z,44.57
2023-01-30T16:35:50.171Z,44.69
2023-01-30T16:38:44.665Z,44.74
2023-01-30T16:41:39.406Z,44.81
2023-01-30T16:44:31.359Z,45.06
2023-01-30T16:47:28.767Z,45.03
2023-01-30T16:50:24.328Z,45.16
2023-01-30T16:53:18.660Z,45.35
2023-01-30T16:56:17.148Z,45.46
2023-01-30T16:59:08.834Z,45.44
2023-01-30T17:02:00.416Z,45.51
2023-01-30T17:04:50.630Z,45.57
2023-01-30T17:07:40.868Z,45.58
2023-01-30T17:10:52.795Z,45.63
2023-01-30T17:13:43.966Z,45.69
2023-01-30T17:16:37.296Z,45.68
2023-01-30T17:19:28.018Z,45.85
2023-01-30T17:22:24.535Z,45.95
2023-01-30T17:25:25.606Z,45.91
2023-01-30T17:28:24.190Z,46.13
2023-01-30T17:31:16.262Z,46.15
2023-01-30T17:34:06.939Z,46.27
2023-01-30T17:36:58.192Z,46.29
2023-01-30T17:39:48.845Z,46.35
2023-01-30T17:42:39.527Z,46.45
2023-01-30T17:45:30.047Z,46.51
2023-01-30T17:48:20.123Z,46.67
2023-01-30T17:51:12.637Z,46.59
2023-01-30T17:54:03.155Z,46.64
2023-01-30T17:56:56.669Z,46.62
2023-01-30T17:59:47.024Z,46.58
2023-01-30T18:02:37.440Z,46.58
2023-01-30T18:05:28.381Z,46.66
2023-01-30T18:08:18.842Z,46.64
2023-01-30T18:11:11.850Z,46.70
2023-01-30T18:14:02.188Z,46.66
2023-01-30T18:16:53.128Z,46.71
2023-01-30T18:19:43.246Z,46.73
2023-01-30T18:22:33.680Z,46.80
2023-01-30T18:25:24.020Z,46.67
2023-01-30T18:28:14.979Z,46.74
2023-01-30T18:31:05.199Z,46.75
2023-01-30T18:33:55.572Z,46.76
2023-01-30T18:36:45.996Z,46.73
2023-01-30T18:39:36.918Z,46.80
2023-01-30T18:42:27.241Z,46.89
2023-01-30T18:45:17.988Z,46.87
2023-01-30T18:48:09.499Z,46.92
2023-01-30T18:51:07.292Z,46.97
2023-01-30T18:53:58.362Z,46.99
2023-01-30T18:56:48.395Z,47.01
2023-01-30T18:59:39.743Z,46.97
2023-01-30T19:02:29.802Z,47.08
2023-01-30T19:05:20.636Z,47.05
2023-01-30T19:08:11.685Z,47.02
2023-01-30T19:11:22.469Z,47.02
2023-01-30T19:14:14.372Z,46.99
2023-01-30T19:17:04.389Z,47.10
2023-01-30T19:19:56.941Z,47.07
2023-01-30T19:22:46.935Z,47.07
2023-01-30T19:25:38.025Z,47.15
2023-01-30T19:28:28.917Z,47.18
2023-01-30T19:31:21.279Z,47.26
2023-01-30T19:34:13.203Z,47.30
2023-01-30T19:37:03.837Z,47.30
2023-01-30T19:39:56.252Z,47.29
2023-01-30T19:42:47.326Z,47.36
2023-01-30T19:45:38.336Z,47.42
2023-01-30T19:48:30.205Z,47.43
2023-01-30T19:51:23.846Z,47.43
2023-01-30T19:54:15.493Z,47.50
2023-01-30T19:57:06.725Z,47.48
2023-01-30T19:59:57.890Z,47.58
2023-01-30T20:02:50.135Z,47.70
2023-01-30T20:05:41.868Z,47.67
2023-01-30T20:08:33.097Z,47.63
2023-01-30T20:11:23.709Z,47.60
2023-01-30T20:14:13.997Z,47.59
2023-01-30T20:17:04.315Z,47.68
2023-01-30T20:19:54.711Z,47.83
2023-01-30T20:22:44.977Z,47.76
2023-01-30T20:25:38.467Z,47.76
2023-01-30T20:28:29.415Z,47.75
2023-01-30T20:31:22.825Z,47.73
2023-01-30T20:34:16.529Z,47.70
2023-01-30T20:37:06.730Z,47.67
2023-01-30T20:39:57.343Z,47.71
2023-01-30T20:42:48.859Z,47.79
2023-01-30T20:45:39.788Z,47.84
2023-01-30T20:48:30.221Z,47.89
2023-01-30T20:51:22.920Z,47.96
2023-01-30T20:54:15.108Z,47.91
2023-01-30T20:57:06.006Z,47.94
2023-01-30T20:59:56.171Z,47.99
2023-01-30T21:02:48.923Z,48.02
2023-01-30T21:05:39.865Z,48.00
2023-01-30T21:08:30.751Z,48.06
2023-01-30T21:11:22.391Z,48.11
2023-01-30T21:14:14.118Z,48.20
2023-01-30T21:17:05.056Z,48.22
2023-01-30T21:19:55.665Z,48.26
2023-01-30T21:22:46.450Z,48.16
2023-01-30T21:25:38.077Z,48.23
2023-01-30T21:28:30.441Z,48.18
2023-01-30T21:31:24.106Z,48.24
2023-01-30T21:34:14.942Z,48.24
2023-01-30T21:37:18.774Z,48.34
2023-01-30T21:40:30.218Z,48.42
2023-01-30T21:43:20.341Z,48.61
2023-01-30T21:46:11.044Z,48.48
2023-01-30T21:49:01.882Z,48.50
2023-01-30T21:51:53.335Z,48.52
2023-01-30T21:54:43.563Z,48.67
2023-01-30T21:57:33.870Z,48.75
2023-01-30T22:00:24.427Z,48.86
2023-01-30T22:03:15.076Z,48.92
2023-01-30T22:06:07.995Z,48.89
2023-01-30T22:08:59.219Z,48.89
2023-01-30T22:11:49.832Z,49.03
2023-01-30T22:14:40.382Z,48.93
2023-01-30T22:17:30.609Z,48.97
2023-01-30T22:20:21.475Z,48.88
2023-01-30T22:23:12.034Z,48.97
2023-01-30T22:26:03.084Z,48.98
2023-01-30T22:28:57.295Z,48.97
2023-01-30T22:31:47.849Z,49.01
2023-01-30T22:34:40.607Z,49.04
2023-01-30T22:37:31.587Z,49.11
2023-01-30T22:40:22.816Z,49.09
2023-01-30T22:43:13.249Z,49.07
2023-01-30T22:46:05.988Z,49.06
2023-01-30T22:48:56.662Z,49.05
2023-01-30T22:51:46.985Z,49.14
2023-01-30T22:54:37.380Z,49.11
2023-01-30T22:57:28.406Z,49.06
2023-01-30T23:00:19.399Z,48.98
2023-01-30T23:03:09.824Z,49.12
2023-01-30T23:06:06.209Z,49.09
2023-01-30T23:08:58.643Z,49.05
2023-01-30T23:12:11.386Z,49.15
2023-01-30T23:15:02.153Z,49.12
2023-01-30T23:18:09.884Z,49.14
2023-01-30T23:21:00.893Z,49.11
2023-01-30T23:23:52.617Z,49.09
2023-01-30T23:26:45.826Z,49.12
2023-01-30T23:29:36.972Z,49.13
2023-01-30T23:32:27.442Z,49.06
2023-01-30T23:35:18.768Z,49.03
2023-01-30T23:38:19.403Z,49.06
2023-01-30T23:41:12.001Z,49.11
2023-01-30T23:44:03.104Z,49.10
2023-01-30T23:46:53.821Z,49.12
2023-01-30T23:49:43.948Z,49.05
2023-01-30T23:52:34.390Z,49.18
2023-01-30T23:55:25.401Z,49.12
2023-01-30T23:58:16.001Z,49.00
